Time;durP1;ratioP1;P1;durP2;ratioP2;P2;SDS_P1;SDS_P2;PMS_P1;PMS_P2;Temp;Humidity;BMP_temperature;BMP_pressure;BME280_temperature;BME280_humidity;BME280_pressure;Samples;Min_cycle;Max_cycle;Signal;HPM_P1;HPM_P2
2021/12/09 00:00:49;;;;;;;30.90;18.08;;;;;;;-2.54;100.00;61740.56;5145983;27;20261;-75
2021/12/09 00:03:17;;;;;;;30.67;17.42;;;;;;;-2.56;100.00;61738.53;5140760;27;20214;-75
2021/12/09 00:05:45;;;;;;;31.73;17.52;;;;;;;-2.52;100.00;61745.09;5138837;27;20488;-74
2021/12/09 00:08:13;;;;;;;36.08;19.48;;;;;;;-2.48;100.00;61748.66;5136982;27;20306;-74
2021/12/09 00:10:40;;;;;;;36.72;20.52;;;;;;;-2.46;100.00;61755.69;5145554;27;20191;-74
2021/12/09 00:13:08;;;;;;;40.78;20.88;;;;;;;-2.40;100.00;61752.38;5139848;27;20240;-76
2021/12/09 00:15:35;;;;;;;42.80;21.85;;;;;;;-2.36;100.00;61758.44;5146277;27;20488;-76
2021/12/09 00:18:02;;;;;;;34.67;19.13;;;;;;;-2.31;100.00;61760.56;5145493;27;20578;-75
2021/12/09 00:20:30;;;;;;;28.13;15.98;;;;;;;-2.46;100.00;61751.22;5145789;27;20203;-76
2021/12/09 00:22:57;;;;;;;32.92;18.42;;;;;;;-2.46;100.00;61748.75;5141556;27;20254;-75
2021/12/09 00:25:24;;;;;;;36.13;19.02;;;;;;;-2.46;100.00;61748.22;5143635;27;20221;-76
2021/12/09 00:27:52;;;;;;;31.05;18.70;;;;;;;-2.46;100.00;61751.22;5145773;27;20233;-75
2021/12/09 00:30:20;;;;;;;36.78;19.65;;;;;;;-2.52;100.00;61744.59;5145719;27;20194;-75
2021/12/09 00:32:47;;;;;;;26.50;15.38;;;;;;;-2.47;100.00;61747.22;5143183;27;20221;-75
2021/12/09 00:35:16;;;;;;;31.33;16.83;;;;;;;-2.61;100.00;61740.88;5130598;27;20233;-75
2021/12/09 00:37:54;;;;;;;24.50;13.27;;;;;;;-2.75;100.00;61713.59;5128450;27;20222;-74
2021/12/09 00:40:21;;;;;;;23.25;13.15;;;;;;;-2.77;100.00;61714.56;5145945;27;20199;-74
2021/12/09 00:42:48;;;;;;;26.58;13.73;;;;;;;-2.68;100.00;61728.75;5142552;27;20245;-75
2021/12/09 00:45:15;;;;;;;23.40;13.30;;;;;;;-2.56;100.00;61736.03;5141621;27;20198;-75
2021/12/09 00:47:42;;;;;;;21.10;12.75;;;;;;;-2.52;100.00;61742.59;5140240;27;20599;-75
2021/12/09 00:50:10;;;;;;;38.58;13.23;;;;;;;-2.37;100.00;61754.94;5145520;27;20202;-75
2021/12/09 00:52:36;;;;;;;21.73;12.38;;;;;;;-2.27;100.00;61764.63;5140771;27;20214;-77
2021/12/09 00:55:08;;;;;;;21.67;12.30;;;;;;;-2.25;100.00;61767.19;5137019;27;20198;-74
2021/12/09 00:57:36;;;;;;;27.38;13.43;;;;;;;-2.29;100.00;61768.09;5145630;27;20266;-75
2021/12/09 01:00:06;;;;;;;31.00;15.07;;;;;;;-2.13;100.00;61783.94;5149085;27;20195;-75
2021/12/09 01:02:32;;;;;;;24.65;13.85;;;;;;;-1.97;100.00;61798.34;5147569;27;20230;-75
2021/12/09 01:04:59;;;;;;;24.92;13.90;;;;;;;-1.86;100.00;61811.56;5152092;27;20223;-75
2021/12/09 01:07:26;;;;;;;27.13;15.13;;;;;;;-1.74;100.00;61819.34;5158446;27;20296;-74
2021/12/09 01:09:52;;;;;;;22.63;13.15;;;;;;;-1.63;100.00;61835.09;5158214;27;20191;-74
2021/12/09 01:12:21;;;;;;;23.30;13.85;;;;;;;-1.78;100.00;61814.75;5155732;27;20479;-75
2021/12/09 01:14:47;;;;;;;21.25;12.18;;;;;;;-1.63;100.00;61833.09;5144896;27;20493;-74
2021/12/09 01:17:14;;;;;;;29.88;13.32;;;;;;;-1.73;100.00;61824.84;5145944;27;20266;-75
2021/12/09 01:19:41;;;;;;;28.63;13.43;;;;;;;-1.40;100.00;61859.13;5145192;27;20195;-75
2021/12/09 01:22:09;;;;;;;27.30;13.68;;;;;;;-1.33;100.00;61868.78;5144879;27;20268;-76
2021/12/09 01:24:36;;;;;;;20.95;12.73;;;;;;;-1.35;100.00;61858.75;5147685;27;20206;-76
2021/12/09 01:27:03;;;;;;;24.42;13.57;;;;;;;-1.27;100.00;61869.44;5143628;27;20424;-75
2021/12/09 01:29:36;;;;;;;23.13;13.27;;;;;;;-1.47;100.00;61849.47;5145605;27;20519;-74
2021/12/09 01:32:06;;;;;;;22.15;12.95;;;;;;;-1.37;100.00;61857.22;5143467;27;20254;-75
2021/12/09 01:34:34;;;;;;;19.30;11.98;;;;;;;-1.38;100.00;61858.19;5143997;27;20247;-75
2021/12/09 01:37:01;;;;;;;20.10;12.30;;;;;;;-1.32;100.00;61864.31;5151154;27;20277;-75
2021/12/09 01:39:30;;;;;;;22.52;13.90;;;;;;;-1.21;100.00;61878.56;5148342;27;20207;-76
2021/12/09 01:41:58;;;;;;;20.63;12.02;;;;;;;-1.10;100.00;61886.31;5141750;27;20226;-74
2021/12/09 01:44:25;;;;;;;17.33;11.70;;;;;;;-1.00;100.00;61894.56;5142998;27;20251;-74
2021/12/09 01:46:55;;;;;;;21.45;11.43;;;;;;;-0.98;100.00;61896.13;5133197;27;20200;-75
2021/12/09 01:49:22;;;;;;;21.65;12.82;;;;;;;-0.95;100.00;61899.69;5156341;27;20564;-75
2021/12/09 01:51:49;;;;;;;22.23;12.77;;;;;;;-0.93;100.00;61901.72;5137380;28;20202;-75
2021/12/09 01:54:17;;;;;;;21.83;11.27;;;;;;;-0.99;100.00;61897.56;5144258;27;20230;-75
2021/12/09 01:56:44;;;;;;;14.60;9.23;;;;;;;-0.93;100.00;61906.22;5141190;27;20503;-75
2021/12/09 01:59:11;;;;;;;22.10;11.50;;;;;;;-0.96;100.00;61900.63;5143766;27;20230;-75
2021/12/09 02:01:38;;;;;;;25.88;14.85;;;;;;;-0.99;100.00;61898.09;5135639;28;20223;-75
2021/12/09 02:04:08;;;;;;;26.50;16.00;;;;;;;-0.88;100.00;61906.34;5144578;27;20268;-76
2021/12/09 02:06:40;;;;;;;24.92;14.57;;;;;;;-0.89;100.00;61908.31;5142581;28;20496;-75
2021/12/09 02:09:07;;;;;;;28.83;15.77;;;;;;;-0.84;100.00;61915.94;5140702;28;20537;-75
2021/12/09 02:11:34;;;;;;;28.05;15.82;;;;;;;-0.96;100.00;61901.16;5133047;28;20432;-75
2021/12/09 02:14:01;;;;;;;28.33;16.33;;;;;;;-0.95;100.00;61901.69;5141401;28;20218;-75
2021/12/09 02:16:28;;;;;;;23.33;13.98;;;;;;;-1.02;100.00;61889.50;5136868;28;20430;-75
2021/12/09 02:18:55;;;;;;;27.27;15.80;;;;;;;-1.09;100.00;61887.84;5145538;27;20293;-74
2021/12/09 02:21:26;;;;;;;25.30;13.75;;;;;;;-1.10;100.00;61889.31;5140013;28;20342;-75
2021/12/09 02:23:56;;;;;;;28.52;16.83;;;;;;;-1.13;100.00;61883.75;5144412;27;20285;-75
2021/12/09 02:26:26;;;;;;;23.35;14.30;;;;;;;-1.10;100.00;61889.31;5142999;28;20257;-75
2021/12/09 02:28:54;;;;;;;23.00;14.00;;;;;;;-1.03;100.00;61895.97;5140124;27;20523;-75
2021/12/09 02:31:21;;;;;;;27.85;16.63;;;;;;;-1.13;100.00;61883.75;5131299;28;20311;-76
2021/12/09 02:33:48;;;;;;;27.52;16.10;;;;;;;-1.16;100.00;61881.19;5143997;27;20380;-75
2021/12/09 02:36:15;;;;;;;25.98;16.92;;;;;;;-1.11;100.00;61885.81;5138367;28;20266;-76
2021/12/09 02:38:45;;;;;;;35.47;17.42;;;;;;;-1.24;100.00;61875.50;5143055;27;20568;-75
2021/12/09 02:41:17;;;;;;;32.72;17.90;;;;;;;-1.17;100.00;61877.16;5143675;28;20210;-75
2021/12/09 02:43:45;;;;;;;30.00;16.42;;;;;;;-1.19;100.00;61880.09;5142676;27;20451;-76
2021/12/09 02:46:13;;;;;;;25.70;14.50;;;;;;;-1.27;100.00;61869.44;5139150;28;20195;-76
2021/12/09 02:48:40;;;;;;;28.48;16.73;;;;;;;-1.19;100.00;61877.59;5143921;28;20226;-76
2021/12/09 02:51:07;;;;;;;28.65;16.50;;;;;;;-1.29;100.00;61864.88;5143930;28;20263;-75
2021/12/09 02:53:35;;;;;;;28.42;17.73;;;;;;;-1.45;100.00;61851.50;5131021;28;20227;-75
2021/12/09 02:56:04;;;;;;;32.08;16.95;;;;;;;-1.41;100.00;61857.59;5136627;28;20202;-75
2021/12/09 02:58:31;;;;;;;32.50;17.80;;;;;;;-1.42;100.00;61852.09;5143875;27;20230;-75
2021/12/09 03:01:08;;;;;;;28.42;15.77;;;;;;;-1.32;100.00;61864.31;5141878;27;20200;-74
2021/12/09 03:03:35;;;;;;;28.05;15.05;;;;;;;-1.33;100.00;61863.78;5140003;28;20222;-74
2021/12/09 03:06:02;;;;;;;26.73;15.65;;;;;;;-1.32;100.00;61862.34;5136488;27;20575;-75
2021/12/09 03:08:36;;;;;;;29.98;15.13;;;;;;;-1.34;100.00;61869.75;5146980;27;20375;-74
2021/12/09 03:11:10;;;;;;;30.48;16.55;;;;;;;-1.53;100.00;61843.34;5147038;27;20187;-76
2021/12/09 03:13:38;;;;;;;29.55;16.88;;;;;;;-1.49;100.00;61839.44;5136583;27;20215;-77
2021/12/09 03:16:06;;;;;;;32.60;17.08;;;;;;;-1.70;100.00;61828.44;5141729;27;20199;-74
2021/12/09 03:18:39;;;;;;;28.40;16.75;;;;;;;-1.75;100.00;61817.81;5147090;27;20234;-75
2021/12/09 03:21:14;;;;;;;26.00;15.75;;;;;;;-1.75;100.00;61820.31;5146935;27;20454;-75
2021/12/09 03:23:41;;;;;;;26.85;14.35;;;;;;;-1.77;100.00;61818.78;5145900;27;20397;-75
2021/12/09 03:26:10;;;;;;;24.00;14.13;;;;;;;-1.76;100.00;61817.31;5139196;27;20216;-75
2021/12/09 03:28:37;;;;;;;22.30;11.98;;;;;;;-1.79;100.00;61816.22;5147118;27;20283;-75
2021/12/09 03:31:04;;;;;;;19.75;10.60;;;;;;;-1.89;100.00;61806.50;5147183;27;20211;-75
2021/12/09 03:33:30;;;;;;;21.70;13.00;;;;;;;-1.92;100.00;61800.44;5143543;27;20218;-76
2021/12/09 03:35:58;;;;;;;23.92;13.23;;;;;;;-1.92;100.00;61805.41;5137052;27;20190;-76
2021/12/09 03:38:25;;;;;;;27.48;13.10;;;;;;;-1.99;100.00;61798.25;5145668;27;20423;-77
2021/12/09 03:40:52;;;;;;;30.88;14.30;;;;;;;-2.01;100.00;61794.25;5147647;27;20210;-76
2021/12/09 03:43:21;;;;;;;33.10;19.50;;;;;;;-2.03;100.00;61787.19;5143673;27;20238;-75
2021/12/09 03:45:50;;;;;;;29.48;18.10;;;;;;;-2.05;100.00;61789.66;5143072;27;20195;-74
2021/12/09 03:48:17;;;;;;;26.13;13.35;;;;;;;-2.08;100.00;61786.56;5143715;27;20256;-76
2021/12/09 03:50:45;;;;;;;20.10;12.48;;;;;;;-2.14;100.00;61783.44;5164772;27;20222;-74
2021/12/09 03:53:13;;;;;;;16.08;9.05;;;;;;;-2.29;100.00;61768.09;5158338;27;20203;-75
2021/12/09 03:55:40;;;;;;;14.13;8.02;;;;;;;-2.38;100.00;61756.91;5149201;27;20203;-75
2021/12/09 03:58:07;;;;;;;15.98;9.35;;;;;;;-2.51;100.00;61743.63;5142775;27;20264;-75
2021/12/09 04:00:36;;;;;;;13.23;8.63;;;;;;;-2.63;100.00;61733.84;5154942;27;20224;-75
2021/12/09 04:03:03;;;;;;;22.08;11.18;;;;;;;-2.59;100.00;61735.44;5139705;27;20239;-74
2021/12/09 04:05:30;;;;;;;22.48;11.50;;;;;;;-2.55;100.00;61744.53;5129878;27;20239;-75
2021/12/09 04:07:57;;;;;;;19.02;10.68;;;;;;;-2.52;100.00;61745.09;5139964;27;20257;-74
2021/12/09 04:10:23;;;;;;;26.88;13.70;;;;;;;-2.51;100.00;61740.63;5139925;27;20202;-75
2021/12/09 04:12:51;;;;;;;24.15;14.85;;;;;;;-2.42;100.00;61750.31;5145665;27;20535;-75
2021/12/09 04:15:18;;;;;;;22.33;13.60;;;;;;;-2.38;100.00;61756.91;5133195;27;20393;-75
2021/12/09 04:17:46;;;;;;;31.23;16.10;;;;;;;-2.20;100.00;61771.78;5139771;27;20214;-74
2021/12/09 04:20:13;;;;;;;33.80;19.20;;;;;;;-2.16;100.00;61778.91;5146032;27;20202;-75
2021/12/09 04:22:41;;;;;;;35.88;19.48;;;;;;;-2.16;100.00;61776.41;5144645;27;20287;-75
2021/12/09 04:25:08;;;;;;;34.47;18.42;;;;;;;-2.22;100.00;61767.78;5140864;27;20258;-75
2021/12/09 04:27:35;;;;;;;28.38;17.08;;;;;;;-2.23;100.00;61771.22;5139589;27;20284;-75
2021/12/09 04:30:02;;;;;;;33.80;18.52;;;;;;;-2.13;100.00;61779.47;5144146;27;20194;-74
2021/12/09 04:32:29;;;;;;;34.75;18.08;;;;;;;-1.99;100.00;61793.28;5145048;27;20263;-75
2021/12/09 04:34:57;;;;;;;40.90;19.90;;;;;;;-1.95;100.00;61802.84;5141727;27;20256;-75
2021/12/09 04:37:24;;;;;;;34.88;19.67;;;;;;;-1.96;100.00;61798.84;5143906;27;20198;-74
2021/12/09 04:39:51;;;;;;;47.20;21.17;;;;;;;-1.85;100.00;61812.59;5144228;27;20239;-75
2021/12/09 04:42:17;;;;;;;38.53;19.55;;;;;;;-1.87;100.00;61808.56;5144729;27;20202;-74
2021/12/09 04:44:44;;;;;;;43.30;21.92;;;;;;;-1.99;100.00;61795.78;5143043;27;20255;-75
2021/12/09 04:47:11;;;;;;;41.63;22.50;;;;;;;-1.95;100.00;61802.84;5136738;27;20195;-75
2021/12/09 04:49:38;;;;;;;44.60;23.20;;;;;;;-1.89;100.00;61810.97;5146256;27;20247;-76
2021/12/09 04:52:07;;;;;;;45.20;22.83;;;;;;;-1.80;100.00;61818.22;5144511;27;20248;-76
2021/12/09 04:54:36;;;;;;;48.50;24.33;;;;;;;-1.73;100.00;61827.88;5143153;27;20197;-75
2021/12/09 04:57:03;;;;;;;40.00;20.55;;;;;;;-1.75;100.00;61820.84;5144817;27;20224;-75
2021/12/09 04:59:29;;;;;;;43.88;20.38;;;;;;;-1.65;100.00;61828.56;5144566;27;20267;-75
2021/12/09 05:01:56;;;;;;;58.05;22.58;;;;;;;-1.70;100.00;61825.44;5145087;27;20544;-75
2021/12/09 05:04:23;;;;;;;47.00;19.50;;;;;;;-1.58;100.00;61837.69;5145300;27;20234;-76
2021/12/09 05:06:50;;;;;;;59.78;19.95;;;;;;;-1.58;100.00;61840.19;5153286;27;20533;-78
2021/12/09 05:09:18;;;;;;;40.95;18.88;;;;;;;-1.61;100.00;61832.16;5145111;27;20230;-76
2021/12/09 05:11:51;;;;;;;40.40;19.02;;;;;;;-1.80;100.00;61815.72;5144519;27;20206;-77
2021/12/09 05:14:21;;;;;;;62.67;31.25;;;;;;;-1.71;100.00;61824.41;5131964;27;20223;-75
2021/12/09 05:16:52;;;;;;;41.25;20.63;;;;;;;-1.74;100.00;61826.84;5144245;27;20202;-76
2021/12/09 05:19:19;;;;;;;62.80;24.67;;;;;;;-1.75;100.00;61817.81;5143062;27;20272;-76
2021/12/09 05:21:46;;;;;;;47.58;20.38;;;;;;;-1.76;100.00;61816.81;5136591;27;20192;-75
2021/12/09 05:24:15;;;;;;;43.63;19.98;;;;;;;-1.75;100.00;61820.31;5144293;27;20238;-75
2021/12/09 05:26:48;;;;;;;52.80;23.20;;;;;;;-1.73;100.00;61824.84;5137213;27;20194;-75
2021/12/09 05:29:16;;;;;;;41.28;22.30;;;;;;;-1.70;100.00;61822.94;5139762;27;20312;-74
2021/12/09 05:34:29;;;;;;;48.13;21.90;;;;;;;-1.79;100.00;61819.22;5141868;27;20226;-76
2021/12/09 05:36:56;;;;;;;43.00;21.30;;;;;;;-1.75;100.00;61817.81;5142299;27;20202;-75
2021/12/09 05:39:23;;;;;;;41.47;19.70;;;;;;;-1.75;100.00;61820.31;5140596;27;20297;-76
2021/12/09 05:41:53;;;;;;;36.55;18.73;;;;;;;-1.89;100.00;61806.00;5144481;27;20206;-76
2021/12/09 05:44:20;;;;;;;41.17;18.15;;;;;;;-1.98;100.00;61796.78;5142690;27;20301;-76
2021/12/09 05:46:48;;;;;;;40.47;18.83;;;;;;;-2.01;100.00;61793.72;5139773;27;20197;-75
2021/12/09 05:49:16;;;;;;;34.10;18.80;;;;;;;-1.87;100.00;61805.53;5138880;27;20308;-75
2021/12/09 05:51:43;;;;;;;43.38;20.55;;;;;;;-1.86;100.00;61809.06;5142151;27;20199;-76
2021/12/09 05:54:11;;;;;;;41.58;20.95;;;;;;;-1.83;100.00;61812.63;5143722;27;20238;-75
2021/12/09 05:56:38;;;;;;;84.03;42.92;;;;;;;-1.85;100.00;61812.59;5140204;27;20202;-75
2021/12/09 05:59:07;;;;;;;49.10;26.35;;;;;;;-1.84;100.00;61816.09;5127786;27;20227;-75
2021/12/09 06:01:34;;;;;;;43.13;21.17;;;;;;;-2.12;100.00;61780.50;5152239;27;20285;-75
2021/12/09 06:04:01;;;;;;;50.45;23.30;;;;;;;-2.02;100.00;61790.22;5149416;27;20530;-75
2021/12/09 06:06:28;;;;;;;43.67;21.58;;;;;;;-1.97;100.00;61797.81;5138155;27;20507;-75
2021/12/09 06:08:54;;;;;;;44.92;22.80;;;;;;;-2.09;100.00;61786.06;5142614;28;20221;-76
2021/12/09 06:11:21;;;;;;;47.22;24.73;;;;;;;-2.29;100.00;61765.09;5144022;28;20495;-75
2021/12/09 06:13:49;;;;;;;48.70;24.85;;;;;;;-2.17;100.00;61775.38;5142423;27;20334;-74
2021/12/09 06:16:17;;;;;;;49.72;25.20;;;;;;;-2.00;100.00;61792.75;5135522;28;20195;-74
2021/12/09 06:18:44;;;;;;;50.35;24.95;;;;;;;-1.98;100.00;61799.78;5144084;28;20223;-75
2021/12/09 06:21:11;;;;;;;40.55;22.10;;;;;;;-1.94;100.00;61798.91;5143595;27;20565;-75
2021/12/09 06:23:38;;;;;;;38.58;21.75;;;;;;;-1.72;100.00;61828.88;5143827;27;20226;-74
2021/12/09 06:26:06;;;;;;;43.30;22.05;;;;;;;-1.76;100.00;61822.28;5145432;27;20431;-75
2021/12/09 06:28:34;;;;;;;44.42;23.52;;;;;;;-1.63;100.00;61830.63;5145385;28;20267;-75
2021/12/09 06:31:01;;;;;;;43.25;22.15;;;;;;;-1.53;100.00;61840.84;5148316;27;20220;-75
2021/12/09 06:33:29;;;;;;;46.53;22.38;;;;;;;-1.51;100.00;61845.38;5150643;27;20214;-75
2021/12/09 06:35:56;;;;;;;48.67;24.50;;;;;;;-1.64;100.00;61829.09;5154050;28;20443;-74
2021/12/09 06:38:23;;;;;;;48.60;24.48;;;;;;;-1.51;100.00;61844.88;5156318;27;20232;-75
2021/12/09 06:40:50;;;;;;;55.35;25.63;;;;;;;-1.46;100.00;61853.00;5148835;27;20187;-75
2021/12/09 06:43:17;;;;;;;55.67;23.75;;;;;;;-1.52;100.00;61844.34;5155577;27;20286;-75
2021/12/09 06:45:44;;;;;;;45.53;22.50;;;;;;;-1.67;100.00;61826.00;5161356;27;20210;-75
2021/12/09 06:48:11;;;;;;;85.53;23.83;;;;;;;-1.85;100.00;61813.09;5151851;27;20275;-75
2021/12/09 06:50:40;;;;;;;107.88;21.17;;;;;;;-1.88;100.00;61807.53;5146929;27;20211;-75
2021/12/09 06:53:08;;;;;;;61.95;22.95;;;;;;;-1.74;100.00;61821.84;5142644;27;20226;-76
2021/12/09 06:55:38;;;;;;;157.65;23.27;;;;;;;-1.71;100.00;61824.91;5138767;27;20187;-75
2021/12/09 06:58:05;;;;;;;49.85;20.60;;;;;;;-1.47;100.00;61849.47;5146237;27;20237;-75
2021/12/09 07:00:33;;;;;;;52.92;21.92;;;;;;;-1.25;100.00;61869.50;5148093;27;20202;-74
2021/12/09 07:03:01;;;;;;;41.97;22.10;;;;;;;-1.46;100.00;61850.50;5144617;27;20218;-74
2021/12/09 07:05:30;;;;;;;48.03;23.10;;;;;;;-1.36;100.00;61857.72;5146800;27;20217;-76
2021/12/09 07:07:58;;;;;;;52.88;24.55;;;;;;;-1.30;100.00;61868.84;5146355;27;20218;-75
2021/12/09 07:10:26;;;;;;;49.72;22.95;;;;;;;-1.26;100.00;61865.97;5145910;27;20206;-75
2021/12/09 07:12:53;;;;;;;55.35;20.95;;;;;;;-1.28;100.00;61868.91;5147316;27;20346;-74
2021/12/09 07:15:20;;;;;;;52.13;22.15;;;;;;;-1.52;100.00;61844.34;5149033;27;20363;-75
2021/12/09 07:17:47;;;;;;;53.90;24.85;;;;;;;-1.34;100.00;61859.75;5144912;27;20539;-76
2021/12/09 07:20:17;;;;;;;53.55;22.80;;;;;;;-1.16;100.00;61881.19;5162107;27;20218;-75
2021/12/09 07:22:45;;;;;;;102.50;22.98;;;;;;;-1.25;100.00;61869.50;5147464;27;20218;-76
2021/12/09 07:25:13;;;;;;;52.20;21.42;;;;;;;-1.28;100.00;61865.91;5147027;27;20234;-77
2021/12/09 07:27:41;;;;;;;61.42;22.83;;;;;;;-1.28;100.00;61868.41;5147523;27;20245;-77
2021/12/09 07:30:10;;;;;;;67.72;24.38;;;;;;;-1.14;100.00;61887.22;5150267;27;20202;-76
2021/12/09 07:32:38;;;;;;;58.40;25.42;;;;;;;-0.95;100.00;61899.19;5148827;27;20532;-78
2021/12/09 07:35:06;;;;;;;58.50;26.10;;;;;;;-0.46;100.00;61952.34;5149223;27;20207;-78
2021/12/09 07:37:34;;;;;;;51.78;25.20;;;;;;;-0.43;100.00;61955.44;5148323;27;20218;-78
2021/12/09 07:40:00;;;;;;;65.57;26.40;;;;;;;-0.43;100.00;61957.44;5152593;27;20202;-76
2021/12/09 07:42:29;;;;;;;48.30;24.80;;;;;;;-0.24;100.00;61977.41;5143332;27;20248;-78
2021/12/09 07:44:55;;;;;;;50.28;23.40;;;;;;;-0.05;100.00;61991.34;5155731;27;20399;-78
2021/12/09 07:47:22;;;;;;;50.42;25.42;;;;;;;-0.05;100.00;61991.34;5147536;27;20515;-78
2021/12/09 07:49:49;;;;;;;57.03;26.30;;;;;;;-0.28;100.00;61970.28;5143401;27;20194;-76
2021/12/09 07:52:16;;;;;;;56.20;25.67;;;;;;;-0.43;100.00;61957.94;5139263;27;20244;-77
2021/12/09 07:54:43;;;;;;;53.25;24.30;;;;;;;-0.43;100.00;61955.44;5145375;27;20198;-77
2021/12/09 07:57:10;;;;;;;55.28;25.65;;;;;;;-0.43;100.00;61952.94;5146696;27;20491;-77
2021/12/09 07:59:38;;;;;;;57.03;25.25;;;;;;;-0.31;100.00;61970.22;5146783;27;20224;-77
2021/12/09 08:02:06;;;;;;;58.85;25.98;;;;;;;-0.86;100.00;61908.91;5143291;27;20191;-78
2021/12/09 08:04:33;;;;;;;62.30;26.88;;;;;;;-0.76;100.00;61924.13;5138502;27;20226;-78
2021/12/09 08:07:00;;;;;;;71.80;29.40;;;;;;;-0.65;100.00;61934.88;5146033;27;20495;-77
2021/12/09 08:09:28;;;;;;;67.32;28.98;;;;;;;-1.09;100.00;61882.34;5148084;27;20215;-76
2021/12/09 08:11:55;;;;;;;68.82;29.92;;;;;;;-0.92;100.00;61907.75;5143567;27;20481;-77
2021/12/09 08:14:22;;;;;;;74.55;32.33;;;;;;;-1.19;100.00;61877.59;5147827;27;20535;-76
2021/12/09 08:17:07;;;;;;;75.68;31.92;;;;;;;-0.99;100.00;61897.56;5148568;27;20195;-77
2021/12/09 08:19:35;;;;;;;112.68;41.58;;;;;;;-0.61;100.00;61937.00;5162557;27;20339;-77
2021/12/09 08:22:01;;;;;;;84.68;35.05;;;;;;;-0.36;100.00;61965.09;5142872;27;20198;-76
2021/12/09 08:24:29;;;;;;;95.28;41.15;;;;;;;-0.20;100.00;61976.50;5144850;27;20242;-79
2021/12/09 08:26:55;;;;;;;83.47;33.85;;;;;;;-0.38;100.00;61963.03;5149185;27;20262;-77
2021/12/09 08:29:22;;;;;;;84.32;34.42;;;;;;;-0.53;100.00;61947.16;5148622;27;20222;-77
2021/12/09 08:31:50;;;;;;;94.35;36.08;;;;;;;-0.19;100.00;61980.00;5148729;27;20191;-76
2021/12/09 08:34:17;;;;;;;97.40;35.80;;;;;;;-0.26;100.00;61972.84;5151536;27;20237;-76
2021/12/09 08:36:44;;;;;;;91.30;33.83;;;;;;;-0.37;100.00;61959.09;5148173;27;20536;-77
2021/12/09 08:39:11;;;;;;;82.03;32.78;;;;;;;-0.08;100.00;61990.78;5146534;27;20227;-76
2021/12/09 08:41:39;;;;;;;90.55;34.47;;;;;;;0.24;100.00;62023.56;5143170;27;20197;-78
2021/12/09 08:44:07;;;;;;;68.00;31.15;;;;;;;0.48;100.00;62050.16;5147756;27;20233;-77
2021/12/09 08:46:34;;;;;;;66.70;32.45;;;;;;;0.46;100.00;62048.63;5150174;27;20202;-78
2021/12/09 08:49:03;;;;;;;88.45;33.13;;;;;;;0.69;100.00;62069.69;5150107;27;20241;-78
2021/12/09 08:51:30;;;;;;;85.60;34.75;;;;;;;0.77;100.00;62082.91;5147535;27;20217;-79
2021/12/09 08:53:58;;;;;;;74.75;32.58;;;;;;;0.63;100.00;62061.03;5145852;27;20218;-79
2021/12/09 08:56:25;;;;;;;81.40;32.70;;;;;;;0.25;100.00;62026.56;5149457;27;20206;-79
2021/12/09 08:58:52;;;;;;;74.00;33.20;;;;;;;0.29;100.00;62028.19;5148097;27;20218;-80
2021/12/09 09:01:19;;;;;;;81.47;32.28;;;;;;;0.17;100.00;62016.41;5148218;27;20236;-79
2021/12/09 09:03:46;;;;;;;77.68;33.35;;;;;;;0.49;100.00;62048.69;5147481;27;20286;-80
2021/12/09 09:06:15;;;;;;;69.75;30.85;;;;;;;0.76;100.00;62079.38;5139919;27;20209;-80
2021/12/09 09:08:42;;;;;;;69.15;30.40;;;;;;;0.57;100.00;62059.91;5149249;27;20214;-81
2021/12/09 09:11:09;;;;;;;81.72;32.63;;;;;;;0.80;100.00;62082.97;5149531;27;20202;-82
2021/12/09 09:13:36;;;;;;;68.97;32.63;;;;;;;0.68;100.00;62068.16;5163805;27;20459;-81
2021/12/09 09:16:03;;;;;;;62.17;29.50;;;;;;;0.09;100.00;62005.69;5149100;27;20199;-82
2021/12/09 09:18:30;;;;;;;70.93;31.60;;;;;;;0.23;100.00;62019.53;5149565;27;20211;-83
2021/12/09 09:20:57;;;;;;;78.68;32.55;;;;;;;0.70;100.00;62067.72;5142631;27;20214;-82
2021/12/09 09:23:26;;;;;;;84.40;33.22;;;;;;;0.85;100.00;62085.59;5153700;27;20272;-82
2021/12/09 09:25:54;;;;;;;69.43;30.95;;;;;;;1.02;100.00;62098.53;5157603;27;20230;-82
2021/12/09 09:28:22;;;;;;;77.63;31.05;;;;;;;1.36;100.00;62135.41;5155589;27;20221;-81
2021/12/09 09:30:56;;;;;;;63.45;29.15;;;;;;;1.54;100.00;62161.41;5153037;27;20195;-81
2021/12/09 09:33:25;;;;;;;78.45;32.40;;;;;;;1.59;100.00;62166.53;5168157;27;20240;-80
2021/12/09 09:35:52;;;;;;;67.43;30.30;;;;;;;1.52;100.00;62156.34;5154727;27;20195;-80
2021/12/09 09:38:21;;;;;;;68.20;29.73;;;;;;;1.41;100.00;62143.06;5165241;27;20233;-80
2021/12/09 09:40:59;;;;;;;79.40;33.05;;;;;;;1.42;100.00;62143.56;5146571;27;20240;-80
2021/12/09 09:43:30;;;;;;;74.68;30.00;;;;;;;1.34;100.00;62135.34;5139922;27;20234;-80
2021/12/09 09:46:01;;;;;;;63.45;30.77;;;;;;;1.74;100.00;62176.91;5151433;27;20275;-78
2021/12/09 09:48:29;;;;;;;57.38;29.00;;;;;;;1.69;100.00;62166.75;5160650;27;20346;-80
2021/12/09 09:50:57;;;;;;;71.97;32.47;;;;;;;1.62;100.00;62164.09;5149257;27;20203;-81
2021/12/09 09:53:24;;;;;;;69.25;32.28;;;;;;;2.11;100.00;62211.88;5150523;27;20211;-80
2021/12/09 09:55:52;;;;;;;72.07;30.45;;;;;;;1.93;100.00;62198.91;5146464;27;20221;-78
2021/12/09 09:58:19;;;;;;;68.93;32.00;;;;;;;1.95;100.00;62195.47;5140612;27;20238;-78
2021/12/09 10:00:46;;;;;;;67.07;30.33;;;;;;;2.19;100.00;62223.09;5144564;27;20387;-78
2021/12/09 10:03:17;;;;;;;60.60;27.50;;;;;;;2.23;100.00;62224.72;5145429;27;20218;-78
2021/12/09 10:05:45;;;;;;;74.25;30.17;;;;;;;2.29;100.00;62237.91;5139353;27;20542;-78
2021/12/09 10:08:14;;;;;;;65.20;29.63;;;;;;;2.58;100.00;62267.69;5138390;28;20231;-78
2021/12/09 10:10:42;;;;;;;69.55;31.52;;;;;;;2.54;100.00;62261.06;5137804;28;20441;-78
2021/12/09 10:13:14;;;;;;;66.68;31.17;;;;;;;1.95;100.00;62200.47;5143040;27;20218;-77
2021/12/09 10:15:44;;;;;;;71.97;31.92;;;;;;;2.21;100.00;62225.16;5143405;27;20207;-79
2021/12/09 10:18:13;;;;;;;64.10;31.58;;;;;;;2.65;100.00;62274.34;5149130;27;20279;-78
2021/12/09 10:20:50;;;;;;;61.15;29.98;;;;;;;2.99;100.00;62304.25;5140257;27;20198;-77
2021/12/09 10:23:38;;;;;;;68.63;31.98;;;;;;;2.69;100.00;62270.94;5146815;27;20226;-77
2021/12/09 10:26:16;;;;;;;74.38;33.85;;;;;;;3.26;100.00;62332.53;5145264;27;20263;-78
2021/12/09 10:28:50;;;;;;;52.25;28.35;;;;;;;2.54;100.00;62258.53;5148977;27;20503;-78
2021/12/09 10:31:19;;;;;;;62.78;30.27;;;;;;;2.11;100.00;62216.88;5151090;27;20186;-77
2021/12/09 10:34:19;;;;;;;59.72;26.38;;;;;;;2.24;100.00;62230.75;5155608;27;20230;-78
2021/12/09 10:36:52;;;;;;;45.60;23.92;;;;;;;2.75;100.00;62280.13;5145671;27;20191;-77
2021/12/09 10:39:23;;;;;;;50.45;24.92;;;;;;;3.04;100.00;62309.91;5152491;27;20214;-78
2021/12/09 10:41:51;;;;;;;48.25;24.55;;;;;;;3.02;100.00;62312.88;5163940;27;20201;-79
2021/12/09 10:44:31;;;;;;;47.20;24.00;;;;;;;3.34;100.00;62340.75;5152088;27;20238;-78
2021/12/09 10:47:07;;;;;;;45.70;23.80;;;;;;;2.87;100.00;62292.44;5162855;27;20233;-79
2021/12/09 10:49:41;;;;;;;51.25;26.92;;;;;;;2.70;100.00;62272.47;5157696;27;20194;-78
2021/12/09 10:52:21;;;;;;;47.90;26.92;;;;;;;2.88;100.00;62295.47;5148021;27;20195;-77
2021/12/09 10:54:48;;;;;;;54.45;26.05;;;;;;;2.83;100.00;62285.31;5144939;27;20259;-77
2021/12/09 10:57:29;;;;;;;52.28;26.00;;;;;;;3.41;100.00;62349.97;5146943;27;20239;-77
2021/12/09 11:00:13;;;;;;;51.33;26.35;;;;;;;3.84;100.00;62393.66;5163137;27;20325;-78
2021/12/09 11:02:58;;;;;;;49.63;25.45;;;;;;;3.98;100.00;62406.06;5148975;27;20223;-78
2021/12/09 11:05:25;;;;;;;55.95;25.67;;;;;;;4.34;100.00;62445.63;5142144;27;20544;-79
2021/12/09 11:07:52;;;;;;;51.72;26.10;;;;;;;4.79;100.00;62491.44;5153529;27;20251;-78
2021/12/09 11:10:22;;;;;;;47.53;25.13;;;;;;;4.60;99.91;62469.88;5164979;27;20421;-79
2021/12/09 11:12:52;;;;;;;47.13;24.83;;;;;;;4.92;100.00;62502.28;5155805;27;20214;-78
2021/12/09 11:15:21;;;;;;;49.33;26.30;;;;;;;5.36;100.00;62552.66;5149700;27;20369;-78
2021/12/09 11:17:51;;;;;;;53.10;26.23;;;;;;;4.97;100.00;62509.44;5149666;27;20286;-78
2021/12/09 11:20:43;;;;;;;45.70;27.55;;;;;;;4.91;98.49;62498.72;5147705;27;20408;-80